createdAt,value
2023-03-20T00:02:36.336Z,11.60
2023-03-20T00:05:46.246Z,10.80
2023-03-20T00:09:07.155Z,11.43
2023-03-20T00:12:23.476Z,10.80
2023-03-20T00:15:45.450Z,11.63
2023-03-20T00:18:56.873Z,11.77
2023-03-20T00:22:06.731Z,11.43
2023-03-20T00:25:20.270Z,11.68
2023-03-20T00:28:39.732Z,12.15
2023-03-20T00:31:50.973Z,12.68
2023-03-20T00:35:02.013Z,11.80
2023-03-20T00:38:11.399Z,11.85
2023-03-20T00:41:25.721Z,12.52
2023-03-20T00:44:37.050Z,11.98
2023-03-20T00:47:46.789Z,13.30
2023-03-20T00:51:01.912Z,13.45
2023-03-20T00:54:17.330Z,12.85
2023-03-20T00:57:27.714Z,14.38
2023-03-20T01:00:39.886Z,14.30
2023-03-20T01:03:48.204Z,13.43
2023-03-20T01:06:59.288Z,13.15
2023-03-20T01:10:08.865Z,13.35
2023-03-20T01:13:20.360Z,14.90
2023-03-20T01:16:27.312Z,14.15
2023-03-20T01:19:33.938Z,13.85
2023-03-20T01:22:47.131Z,14.48
2023-03-20T01:25:54.791Z,14.25
2023-03-20T01:29:00.455Z,14.02
2023-03-20T01:32:10.655Z,13.90
2023-03-20T01:35:20.623Z,15.02
2023-03-20T01:38:32.771Z,15.45
2023-03-20T01:41:41.021Z,16.38
2023-03-20T01:44:48.475Z,17.23
2023-03-20T01:47:54.209Z,14.77
2023-03-20T01:51:03.733Z,14.65
2023-03-20T01:54:17.699Z,13.85
2023-03-20T01:57:29.470Z,14.15
2023-03-20T02:00:37.073Z,14.77
2023-03-20T02:03:45.171Z,14.02
2023-03-20T02:07:06.130Z,14.18
2023-03-20T02:10:23.511Z,14.55
2023-03-20T02:13:39.407Z,14.20
2023-03-20T02:16:58.799Z,14.85
2023-03-20T02:20:07.859Z,13.40
2023-03-20T02:23:33.692Z,12.55
2023-03-20T02:26:54.424Z,15.25
2023-03-20T02:30:18.747Z,14.10
2023-03-20T02:33:48.415Z,13.98
2023-03-20T02:37:08.468Z,15.05
2023-03-20T02:40:21.339Z,14.05
2023-03-20T02:43:33.893Z,14.82
2023-03-20T02:46:50.130Z,15.68
2023-03-20T02:49:59.263Z,16.52
2023-03-20T02:53:14.943Z,18.02
2023-03-20T02:56:29.229Z,18.65
2023-03-20T02:59:38.165Z,19.75
2023-03-20T03:02:46.577Z,19.20
2023-03-20T03:05:55.620Z,18.13
2023-03-20T03:09:09.257Z,18.50
2023-03-20T03:12:19.511Z,18.85
2023-03-20T03:15:34.156Z,19.83
2023-03-20T03:18:42.313Z,18.00
2023-03-20T03:21:51.935Z,21.65
2023-03-20T03:25:14.288Z,20.95
2023-03-20T03:28:39.810Z,19.42
2023-03-20T03:31:45.804Z,18.90
2023-03-20T03:34:59.476Z,19.92
2023-03-20T03:38:15.059Z,19.80
2023-03-20T03:41:29.330Z,20.60
2023-03-20T03:44:43.736Z,22.05
2023-03-20T03:47:54.664Z,23.27
2023-03-20T03:51:05.918Z,23.08
2023-03-20T03:54:16.234Z,21.90
2023-03-20T03:57:24.373Z,24.13
2023-03-20T04:00:33.642Z,20.88
2023-03-20T04:03:41.469Z,19.23
2023-03-20T04:06:48.676Z,25.70
2023-03-20T04:09:54.103Z,26.55
2023-03-20T04:13:03.510Z,27.38
2023-03-20T04:16:19.379Z,28.00
2023-03-20T04:19:26.357Z,29.83
2023-03-20T04:22:36.874Z,26.95
2023-03-20T04:25:53.143Z,28.30
2023-03-20T04:29:00.053Z,27.52
2023-03-20T04:32:10.451Z,28.42
2023-03-20T04:35:16.203Z,26.95
2023-03-20T04:38:23.350Z,28.60
2023-03-20T04:41:28.646Z,23.20
2023-03-20T04:44:44.308Z,25.83
2023-03-20T04:47:53.646Z,28.33
2023-03-20T04:51:05.280Z,23.75
2023-03-20T04:54:11.064Z,26.10
2023-03-20T04:57:18.111Z,24.92
2023-03-20T05:00:26.009Z,22.60
2023-03-20T05:03:36.854Z,25.30
2023-03-20T05:06:44.137Z,21.55
2023-03-20T05:09:51.201Z,24.27
2023-03-20T05:12:57.671Z,22.25
2023-03-20T05:16:03.329Z,21.55
2023-03-20T05:19:13.182Z,20.38
2023-03-20T05:22:18.848Z,25.98
2023-03-20T05:25:25.432Z,22.33
2023-03-20T05:28:31.361Z,22.08
2023-03-20T05:31:38.452Z,21.15
2023-03-20T05:34:48.048Z,19.75
2023-03-20T05:37:53.749Z,19.85
2023-03-20T05:41:02.563Z,17.10
2023-03-20T05:44:14.232Z,26.08
2023-03-20T05:47:24.200Z,25.63
2023-03-20T05:50:34.098Z,28.85
2023-03-20T05:53:41.817Z,25.70
2023-03-20T05:56:50.040Z,35.25
2023-03-20T06:00:02.413Z,30.08
2023-03-20T06:03:07.621Z,16.63
2023-03-20T06:06:19.046Z,34.05
2023-03-20T06:09:24.745Z,41.35
2023-03-20T06:12:35.008Z,27.75
2023-03-20T06:15:42.826Z,31.20
2023-03-20T06:18:51.104Z,33.38
2023-03-20T06:22:00.939Z,32.35
2023-03-20T06:25:06.956Z,25.98
2023-03-20T06:28:13.377Z,35.58
2023-03-20T06:31:19.027Z,22.60
2023-03-20T06:34:24.802Z,39.00
2023-03-20T06:37:36.661Z,29.67
2023-03-20T06:40:45.383Z,31.63
2023-03-20T06:43:50.878Z,27.42
2023-03-20T06:46:58.062Z,27.13
2023-03-20T06:50:03.746Z,20.88
2023-03-20T06:53:12.688Z,29.13
2023-03-20T06:56:23.048Z,19.27
2023-03-20T06:59:28.549Z,31.13
2023-03-20T07:02:38.654Z,30.90
2023-03-20T07:05:45.103Z,18.95
2023-03-20T07:08:55.373Z,16.08
2023-03-20T07:12:02.817Z,23.52
2023-03-20T07:15:09.953Z,21.90
2023-03-20T07:18:15.471Z,15.45
2023-03-20T07:21:23.385Z,17.88
2023-03-20T07:24:32.240Z,19.55
2023-03-20T07:27:37.867Z,20.10
2023-03-20T07:30:42.939Z,19.85
2023-03-20T07:33:49.086Z,15.50
2023-03-20T07:36:54.485Z,18.52
2023-03-20T07:40:02.753Z,14.63
2023-03-20T07:43:09.716Z,16.77
2023-03-20T07:46:17.503Z,17.20
2023-03-20T07:49:25.015Z,16.60
2023-03-20T07:52:30.892Z,16.98
2023-03-20T07:55:39.116Z,14.95
2023-03-20T07:58:44.710Z,14.00
2023-03-20T08:01:54.280Z,15.38
2023-03-20T08:05:00.198Z,15.30
2023-03-20T08:08:05.933Z,13.82
2023-03-20T08:11:19.138Z,15.57
2023-03-20T08:14:27.310Z,18.20
2023-03-20T08:17:33.535Z,16.15
2023-03-20T08:20:40.932Z,18.85
2023-03-20T08:23:49.806Z,17.33
2023-03-20T08:27:01.823Z,17.88
2023-03-20T08:30:18.295Z,18.25
2023-03-20T08:33:26.450Z,17.23
2023-03-20T08:36:40.699Z,16.60
2023-03-20T08:39:50.489Z,18.95
2023-03-20T08:42:59.846Z,19.08
2023-03-20T08:46:07.292Z,15.95
2023-03-20T08:49:16.694Z,14.82
2023-03-20T08:52:26.234Z,16.23
2023-03-20T08:55:32.072Z,14.65
2023-03-20T08:58:40.151Z,8.85
2023-03-20T09:05:10.052Z,17.08
2023-03-20T09:08:18.779Z,14.75
2023-03-20T09:11:24.099Z,11.27
2023-03-20T09:14:42.507Z,14.02
2023-03-20T09:17:57.486Z,14.17
2023-03-20T09:21:04.878Z,13.35
2023-03-20T09:24:16.469Z,10.82
2023-03-20T09:27:25.997Z,12.77
2023-03-20T09:30:34.339Z,12.18
2023-03-20T09:33:40.833Z,10.50
2023-03-20T09:36:49.188Z,7.85
2023-03-20T09:39:57.490Z,8.90
2023-03-20T09:43:08.777Z,10.32
2023-03-20T09:46:22.531Z,7.32
2023-03-20T09:49:33.688Z,7.82
2023-03-20T09:52:42.692Z,8.27
2023-03-20T09:55:48.212Z,7.60
2023-03-20T09:58:57.022Z,5.18
2023-03-20T10:02:07.834Z,7.18
2023-03-20T10:08:35.757Z,7.68
2023-03-20T10:11:55.605Z,9.32
2023-03-20T10:15:07.139Z,9.35
2023-03-20T10:18:20.710Z,7.28
2023-03-20T10:21:28.323Z,11.48
2023-03-20T10:24:37.327Z,9.20
2023-03-20T10:27:43.540Z,8.10
2023-03-20T10:31:08.746Z,9.82
2023-03-20T10:34:22.131Z,10.85
2023-03-20T10:37:35.993Z,8.98
2023-03-20T10:40:43.518Z,9.85
2023-03-20T10:43:51.961Z,9.38
2023-03-20T10:46:59.736Z,9.52
2023-03-20T10:50:08.121Z,11.50
2023-03-20T11:00:16.775Z,10.73
2023-03-20T11:03:30.770Z,9.32
2023-03-20T11:06:42.508Z,11.75
2023-03-20T11:10:00.625Z,8.68
2023-03-20T11:13:20.994Z,8.10
2023-03-20T11:16:28.003Z,8.48
2023-03-20T11:19:36.282Z,10.32
2023-03-20T11:22:45.112Z,11.02
2023-03-20T11:29:12.680Z,10.38
2023-03-20T11:32:25.903Z,9.37
2023-03-20T11:35:35.276Z,9.13
2023-03-20T11:38:52.555Z,8.88
2023-03-20T11:41:58.971Z,12.50
2023-03-20T11:45:06.935Z,9.85
2023-03-20T11:48:18.172Z,9.77
2023-03-20T11:51:25.440Z,11.75
2023-03-20T11:54:33.737Z,12.93
2023-03-20T11:57:41.217Z,13.73
2023-03-20T12:00:47.892Z,13.40
2023-03-20T12:03:57.397Z,13.43
2023-03-20T12:07:07.068Z,11.07
2023-03-20T12:10:20.178Z,9.20
2023-03-20T12:16:39.733Z,11.40
2023-03-20T12:19:46.482Z,10.23
2023-03-20T12:22:57.212Z,11.48
2023-03-20T12:26:07.893Z,11.82
2023-03-20T12:29:17.172Z,8.93
2023-03-20T12:32:28.133Z,7.97
2023-03-20T12:35:36.304Z,9.27
2023-03-20T12:38:41.957Z,9.57
2023-03-20T12:42:01.146Z,7.82
2023-03-20T12:45:09.773Z,11.07
2023-03-20T12:48:25.171Z,10.77
2023-03-20T12:51:34.705Z,11.35
2023-03-20T12:54:45.001Z,11.18
2023-03-20T12:57:59.045Z,10.50
2023-03-20T13:01:07.009Z,8.13
2023-03-20T13:04:23.264Z,6.45
2023-03-20T13:07:46.070Z,6.55
2023-03-20T13:10:58.320Z,5.30
2023-03-20T13:14:12.296Z,5.38
2023-03-20T13:17:20.656Z,5.78
2023-03-20T13:20:30.163Z,4.03
2023-03-20T13:23:40.447Z,4.82
2023-03-20T13:26:49.716Z,5.20
2023-03-20T13:30:03.284Z,4.82
2023-03-20T13:33:14.499Z,4.57
2023-03-20T13:39:36.521Z,3.80
2023-03-20T13:42:51.155Z,3.80
2023-03-20T13:46:09.007Z,2.92
2023-03-20T13:49:23.161Z,3.50
2023-03-20T13:52:32.349Z,3.75
2023-03-20T13:55:44.753Z,3.42
2023-03-20T13:59:06.396Z,3.10
2023-03-20T14:02:24.322Z,3.80
2023-03-20T14:05:33.817Z,3.20
2023-03-20T14:08:40.851Z,4.47
2023-03-20T14:11:48.308Z,3.67
2023-03-20T14:14:56.063Z,4.53
2023-03-20T14:18:06.657Z,4.78
2023-03-20T14:21:14.172Z,3.90
2023-03-20T14:24:21.662Z,5.18
2023-03-20T14:27:44.400Z,4.80
2023-03-20T14:30:51.663Z,4.65
2023-03-20T14:34:02.763Z,4.20
2023-03-20T14:37:29.365Z,4.57
2023-03-20T14:40:39.752Z,5.40
2023-03-20T14:43:52.475Z,5.47
2023-03-20T14:47:02.236Z,6.13
2023-03-20T14:50:14.806Z,4.70
2023-03-20T14:53:21.497Z,5.13
2023-03-20T14:56:32.043Z,6.13
2023-03-20T14:59:37.109Z,4.43
2023-03-20T15:02:47.043Z,5.78
2023-03-20T15:06:01.134Z,4.80
2023-03-20T15:09:10.327Z,4.95
2023-03-20T15:12:18.160Z,6.28
2023-03-20T15:15:28.536Z,5.85
2023-03-20T15:18:35.567Z,5.10
2023-03-20T15:21:48.323Z,5.78
2023-03-20T15:25:02.853Z,4.28
2023-03-20T15:28:13.915Z,5.40
2023-03-20T15:31:24.572Z,4.47
2023-03-20T15:34:32.441Z,4.65
2023-03-20T15:37:40.941Z,6.13
2023-03-20T15:40:51.318Z,5.82
2023-03-20T15:43:56.802Z,5.05
2023-03-20T15:47:09.026Z,5.28
2023-03-20T15:50:17.029Z,5.23
2023-03-20T15:53:29.193Z,4.82
2023-03-20T15:56:36.248Z,6.03
2023-03-20T15:59:42.120Z,5.10
2023-03-20T16:02:49.229Z,5.68
2023-03-20T16:05:56.227Z,5.30
2023-03-20T16:09:05.606Z,4.65
2023-03-20T16:12:27.449Z,5.95
2023-03-20T16:15:34.878Z,4.65
2023-03-20T16:18:42.566Z,5.75
2023-03-20T16:21:52.167Z,3.10
2023-03-20T16:25:06.381Z,4.93
2023-03-20T16:28:11.544Z,5.65
2023-03-20T16:31:20.294Z,6.25
2023-03-20T16:34:27.806Z,6.82
2023-03-20T16:37:35.135Z,5.15
2023-03-20T16:40:43.960Z,6.30
2023-03-20T16:43:50.070Z,6.15
2023-03-20T16:47:00.593Z,4.18
2023-03-20T16:50:15.712Z,5.30
2023-03-20T16:53:25.976Z,5.47
2023-03-20T16:56:37.164Z,7.15
2023-03-20T16:59:44.987Z,5.47
2023-03-20T17:02:54.257Z,6.63
2023-03-20T17:06:00.645Z,6.00
2023-03-20T17:09:14.522Z,5.43
2023-03-20T17:12:25.404Z,5.43
2023-03-20T17:15:32.938Z,5.72
2023-03-20T17:18:41.420Z,3.83
2023-03-20T17:21:48.023Z,6.80
2023-03-20T17:24:54.640Z,5.90
2023-03-20T17:28:04.496Z,4.80
2023-03-20T17:31:10.561Z,6.28
2023-03-20T17:34:20.275Z,6.40
2023-03-20T17:37:29.472Z,5.55
2023-03-20T17:40:40.961Z,5.95
2023-03-20T17:43:49.522Z,4.72
2023-03-20T17:46:59.460Z,5.35
2023-03-20T17:50:09.965Z,4.68
2023-03-20T17:53:19.973Z,4.60
2023-03-20T17:56:29.352Z,4.82
2023-03-20T17:59:39.066Z,5.05
2023-03-20T18:02:46.704Z,4.68
2023-03-20T18:05:57.477Z,4.70
2023-03-20T18:09:04.733Z,5.28
2023-03-20T18:12:21.595Z,5.30
2023-03-20T18:15:31.346Z,6.18
2023-03-20T18:18:37.691Z,6.53
2023-03-20T18:21:45.469Z,7.07
2023-03-20T18:24:57.289Z,7.05
2023-03-20T18:28:05.771Z,7.70
2023-03-20T18:31:20.763Z,7.47
2023-03-20T18:34:28.333Z,8.60
2023-03-20T18:37:34.358Z,8.20
2023-03-20T18:40:40.275Z,9.27
2023-03-20T18:43:47.438Z,7.65
2023-03-20T18:46:59.168Z,8.45
2023-03-20T18:50:09.409Z,8.43
2023-03-20T18:53:15.242Z,7.45
2023-03-20T18:56:22.878Z,8.93
2023-03-20T18:59:28.427Z,8.00
2023-03-20T19:02:39.539Z,8.05
2023-03-20T19:05:46.161Z,8.88
2023-03-20T19:08:55.329Z,8.32
2023-03-20T19:12:01.137Z,8.75
2023-03-20T19:15:09.160Z,8.55
2023-03-20T19:18:19.465Z,8.85
2023-03-20T19:21:26.706Z,9.45
2023-03-20T19:24:32.334Z,9.80
2023-03-20T19:27:46.309Z,9.65
2023-03-20T19:30:59.597Z,9.63
2023-03-20T19:34:36.917Z,10.27
2023-03-20T19:37:41.528Z,10.38
2023-03-20T19:40:48.077Z,8.43
2023-03-20T19:43:55.724Z,12.40
2023-03-20T19:47:12.143Z,10.82
2023-03-20T19:50:30.270Z,10.57
2023-03-20T19:53:35.751Z,10.02
2023-03-20T19:56:42.628Z,13.65
2023-03-20T19:59:53.005Z,9.40
2023-03-20T20:03:01.712Z,12.15
2023-03-20T20:06:10.377Z,9.38
2023-03-20T20:09:16.114Z,11.40
2023-03-20T20:12:21.566Z,13.90
2023-03-20T20:15:32.284Z,11.27
2023-03-20T20:18:38.517Z,12.15
2023-03-20T20:25:14.228Z,10.10
2023-03-20T20:28:26.962Z,10.70
2023-03-20T20:31:34.209Z,14.25
2023-03-20T20:38:40.833Z,12.25
2023-03-20T20:41:41.684Z,13.40
2023-03-20T20:44:47.254Z,15.70
2023-03-20T20:47:53.299Z,15.65
2023-03-20T20:51:02.641Z,16.40
2023-03-20T20:54:12.770Z,17.35
2023-03-20T20:57:20.463Z,14.75
2023-03-20T21:00:47.569Z,18.67
2023-03-20T21:03:53.718Z,16.98
2023-03-20T21:07:10.268Z,14.45
2023-03-20T21:10:22.075Z,10.43
2023-03-20T21:13:27.498Z,16.63
2023-03-20T21:16:37.644Z,19.02
2023-03-20T21:19:48.489Z,16.65
2023-03-20T21:22:55.829Z,14.25
2023-03-20T21:26:05.117Z,18.60
2023-03-20T21:29:10.943Z,17.48
2023-03-20T21:32:17.710Z,17.85
2023-03-20T21:35:24.942Z,19.05
2023-03-20T21:39:14.967Z,15.93
2023-03-20T21:42:04.284Z,17.95
2023-03-20T21:52:54.687Z,11.05
2023-03-20T21:59:43.055Z,13.38
2023-03-20T22:02:50.291Z,15.57
2023-03-20T22:13:59.678Z,14.50
2023-03-20T22:17:25.893Z,10.10
2023-03-20T22:27:43.721Z,14.77
2023-03-20T22:34:30.720Z,14.43
2023-03-20T22:38:06.130Z,17.15
2023-03-20T22:42:13.715Z,15.95
2023-03-20T22:44:50.660Z,16.55
2023-03-20T22:47:48.202Z,17.52
2023-03-20T22:51:13.755Z,11.30
2023-03-20T22:54:22.326Z,10.38
2023-03-20T22:57:41.131Z,14.23
2023-03-20T23:00:55.614Z,15.10
2023-03-20T23:04:03.013Z,16.70
2023-03-20T23:07:13.453Z,16.92
2023-03-20T23:10:22.705Z,15.85
2023-03-20T23:13:29.911Z,17.38
2023-03-20T23:16:36.438Z,19.48
2023-03-20T23:19:50.433Z,15.70
2023-03-20T23:23:04.965Z,13.88
2023-03-20T23:26:15.037Z,12.55
2023-03-20T23:29:22.503Z,20.63
2023-03-20T23:32:29.075Z,18.15
2023-03-20T23:35:39.188Z,12.98
2023-03-20T23:38:49.283Z,19.77
2023-03-20T23:42:12.028Z,15.48
2023-03-20T23:45:20.884Z,14.05
2023-03-20T23:48:27.128Z,18.52
2023-03-20T23:51:35.138Z,16.35
2023-03-20T23:54:44.234Z,17.05
2023-03-20T23:57:57.125Z,17.23
